sensor_id;sensor_type;location;lat;lon;timestamp;pressure;altitude;pressure_sealevel;temperature;humidity
65151;BME280;51918;51.856;0.150;2022-10-23T00:03:09;100101.13;;;14.38;70.33
65151;BME280;51918;51.856;0.150;2022-10-23T00:08:10;100096.78;;;14.46;70.15
65151;BME280;51918;51.856;0.150;2022-10-23T00:13:12;100087.00;;;14.48;70.35
65151;BME280;51918;51.856;0.150;2022-10-23T00:18:12;100086.78;;;14.43;70.16
65151;BME280;51918;51.856;0.150;2022-10-23T00:23:15;100077.22;;;14.36;70.51
65151;BME280;51918;51.856;0.150;2022-10-23T00:28:17;100066.88;;;14.43;70.33
65151;BME280;51918;51.856;0.150;2022-10-23T00:33:17;100047.78;;;14.37;70.76
65151;BME280;51918;51.856;0.150;2022-10-23T00:38:18;100054.72;;;14.30;70.48
65151;BME280;51918;51.856;0.150;2022-10-23T00:43:22;100048.16;;;14.41;70.47
65151;BME280;51918;51.856;0.150;2022-10-23T00:48:24;100047.97;;;14.43;70.29
65151;BME280;51918;51.856;0.150;2022-10-23T00:53:25;100030.28;;;14.46;70.41
65151;BME280;51918;51.856;0.150;2022-10-23T00:58:27;100023.91;;;14.49;70.33
65151;BME280;51918;51.856;0.150;2022-10-23T01:03:28;100020.31;;;14.50;70.26
65151;BME280;51918;51.856;0.150;2022-10-23T01:08:34;100017.75;;;14.50;69.96
65151;BME280;51918;51.856;0.150;2022-10-23T01:13:43;100009.38;;;14.48;70.24
65151;BME280;51918;51.856;0.150;2022-10-23T01:18:55;100011.38;;;14.46;70.24
65151;BME280;51918;51.856;0.150;2022-10-23T01:24:14;100005.97;;;14.47;69.99
65151;BME280;51918;51.856;0.150;2022-10-23T01:29:23;100000.41;;;14.50;69.90
65151;BME280;51918;51.856;0.150;2022-10-23T01:34:30;100000.78;;;14.54;69.77
65151;BME280;51918;51.856;0.150;2022-10-23T01:39:35;99983.50;;;14.54;69.50
65151;BME280;51918;51.856;0.150;2022-10-23T01:44:41;99984.66;;;14.52;69.84
65151;BME280;51918;51.856;0.150;2022-10-23T01:49:45;99970.34;;;14.49;70.24
65151;BME280;51918;51.856;0.150;2022-10-23T01:54:49;99963.97;;;14.45;70.41
65151;BME280;51918;51.856;0.150;2022-10-23T01:59:54;99953.41;;;14.47;70.44
65151;BME280;51918;51.856;0.150;2022-10-23T02:05:00;99947.88;;;14.50;70.50
65151;BME280;51918;51.856;0.150;2022-10-23T02:10:04;99939.28;;;14.49;70.48
65151;BME280;51918;51.856;0.150;2022-10-23T02:15:09;99917.78;;;14.49;70.69
65151;BME280;51918;51.856;0.150;2022-10-23T02:20:16;99915.78;;;14.51;70.67
65151;BME280;51918;51.856;0.150;2022-10-23T02:25:19;99907.84;;;14.52;70.42
65151;BME280;51918;51.856;0.150;2022-10-23T02:30:25;99889.13;;;14.50;70.78
65151;BME280;51918;51.856;0.150;2022-10-23T02:35:27;99886.31;;;14.52;70.75
65151;BME280;51918;51.856;0.150;2022-10-23T02:40:34;99867.03;;;14.48;70.91
65151;BME280;51918;51.856;0.150;2022-10-23T02:45:45;99874.56;;;14.49;70.90
65151;BME280;51918;51.856;0.150;2022-10-23T02:50:52;99861.63;;;14.56;70.65
65151;BME280;51918;51.856;0.150;2022-10-23T02:56:01;99860.22;;;14.60;70.61
65151;BME280;51918;51.856;0.150;2022-10-23T03:01:04;99842.53;;;14.50;71.05
65151;BME280;51918;51.856;0.150;2022-10-23T03:06:07;99846.06;;;14.63;70.66
65151;BME280;51918;51.856;0.150;2022-10-23T03:11:08;99831.13;;;14.65;70.80
65151;BME280;51918;51.856;0.150;2022-10-23T03:16:10;99812.41;;;14.63;71.02
65151;BME280;51918;51.856;0.150;2022-10-23T03:21:11;99840.13;;;14.55;71.78
65151;BME280;51918;51.856;0.150;2022-10-23T03:26:11;99831.41;;;14.50;72.50
65151;BME280;51918;51.856;0.150;2022-10-23T03:31:13;99777.63;;;14.58;72.20
65151;BME280;51918;51.856;0.150;2022-10-23T03:36:14;99765.25;;;14.54;72.41
65151;BME280;51918;51.856;0.150;2022-10-23T03:41:14;99752.13;;;14.55;72.52
65151;BME280;51918;51.856;0.150;2022-10-23T03:46:16;99740.50;;;14.71;72.27
65151;BME280;51918;51.856;0.150;2022-10-23T03:51:17;99756.59;;;14.73;72.15
65151;BME280;51918;51.856;0.150;2022-10-23T03:56:17;99742.66;;;14.74;72.15
65151;BME280;51918;51.856;0.150;2022-10-23T04:01:19;99712.03;;;14.71;72.65
65151;BME280;51918;51.856;0.150;2022-10-23T04:06:20;99722.53;;;14.76;72.45
65151;BME280;51918;51.856;0.150;2022-10-23T04:11:20;99709.41;;;14.78;72.44
65151;BME280;51918;51.856;0.150;2022-10-23T04:16:23;99700.81;;;14.77;72.42
65151;BME280;51918;51.856;0.150;2022-10-23T04:21:23;99691.06;;;14.79;72.40
65151;BME280;51918;51.856;0.150;2022-10-23T04:26:24;99677.94;;;14.81;72.06
65151;BME280;51918;51.856;0.150;2022-10-23T04:31:26;99674.56;;;14.74;72.77
65151;BME280;51918;51.856;0.150;2022-10-23T04:36:26;99683.28;;;14.79;72.57
65151;BME280;51918;51.856;0.150;2022-10-23T04:41:27;99681.13;;;14.76;72.74
65151;BME280;51918;51.856;0.150;2022-10-23T04:46:29;99663.19;;;14.82;72.75
65151;BME280;51918;51.856;0.150;2022-10-23T04:51:29;99647.25;;;14.78;72.96
65151;BME280;51918;51.856;0.150;2022-10-23T04:56:30;99646.31;;;14.72;73.33
65151;BME280;51918;51.856;0.150;2022-10-23T05:01:32;99632.44;;;14.60;74.01
65151;BME280;51918;51.856;0.150;2022-10-23T05:06:32;99630.81;;;14.66;73.91
65151;BME280;51918;51.856;0.150;2022-10-23T05:11:33;99622.66;;;14.62;74.42
65151;BME280;51918;51.856;0.150;2022-10-23T05:16:39;99598.97;;;14.65;74.12
65151;BME280;51918;51.856;0.150;2022-10-23T05:21:42;99595.53;;;14.71;74.16
65151;BME280;51918;51.856;0.150;2022-10-23T05:26:43;99578.22;;;14.72;74.13
65151;BME280;51918;51.856;0.150;2022-10-23T05:31:45;99574.53;;;14.79;73.95
65151;BME280;51918;51.856;0.150;2022-10-23T05:36:47;99575.38;;;14.80;73.85
65151;BME280;51918;51.856;0.150;2022-10-23T05:41:48;99560.19;;;14.84;74.21
65151;BME280;51918;51.856;0.150;2022-10-23T05:46:50;99541.88;;;14.85;73.71
65151;BME280;51918;51.856;0.150;2022-10-23T05:51:51;99546.56;;;14.70;74.37
65151;BME280;51918;51.856;0.150;2022-10-23T05:56:51;99550.47;;;14.79;74.18
65151;BME280;51918;51.856;0.150;2022-10-23T06:01:53;99544.75;;;14.70;74.62
65151;BME280;51918;51.856;0.150;2022-10-23T06:06:54;99541.00;;;14.66;75.01
65151;BME280;51918;51.856;0.150;2022-10-23T06:11:54;99528.66;;;14.68;75.14
65151;BME280;51918;51.856;0.150;2022-10-23T06:16:56;99525.97;;;14.56;75.49
65151;BME280;51918;51.856;0.150;2022-10-23T06:21:57;99518.19;;;14.82;74.79
65151;BME280;51918;51.856;0.150;2022-10-23T06:26:57;99510.25;;;14.76;74.68
65151;BME280;51918;51.856;0.150;2022-10-23T06:31:59;99497.47;;;14.82;74.56
65151;BME280;51918;51.856;0.150;2022-10-23T06:37:00;99502.28;;;14.78;74.78
65151;BME280;51918;51.856;0.150;2022-10-23T06:42:00;99487.22;;;14.93;74.21
65151;BME280;51918;51.856;0.150;2022-10-23T06:47:03;99487.09;;;14.63;75.20
65151;BME280;51918;51.856;0.150;2022-10-23T06:52:04;99481.16;;;14.81;74.78
65151;BME280;51918;51.856;0.150;2022-10-23T06:57:04;99453.66;;;14.62;75.65
65151;BME280;51918;51.856;0.150;2022-10-23T07:02:07;99459.31;;;14.95;74.28
65151;BME280;51918;51.856;0.150;2022-10-23T07:07:08;99443.19;;;14.93;74.25
65151;BME280;51918;51.856;0.150;2022-10-23T07:12:08;99469.88;;;14.94;73.92
65151;BME280;51918;51.856;0.150;2022-10-23T07:17:10;99490.47;;;14.89;73.66
65151;BME280;51918;51.856;0.150;2022-10-23T07:22:11;99544.09;;;14.82;74.37
65151;BME280;51918;51.856;0.150;2022-10-23T07:27:11;99512.84;;;15.02;74.28
65151;BME280;51918;51.856;0.150;2022-10-23T07:32:13;99513.31;;;14.92;74.49
65151;BME280;51918;51.856;0.150;2022-10-23T07:37:14;99527.28;;;14.91;74.87
65151;BME280;51918;51.856;0.150;2022-10-23T07:42:14;99508.91;;;14.92;75.00
65151;BME280;51918;51.856;0.150;2022-10-23T07:47:16;99506.06;;;15.01;75.42
65151;BME280;51918;51.856;0.150;2022-10-23T07:52:17;99505.69;;;14.97;75.57
65151;BME280;51918;51.856;0.150;2022-10-23T07:57:18;99492.59;;;14.92;76.07
65151;BME280;51918;51.856;0.150;2022-10-23T08:02:20;99473.91;;;14.90;76.56
65151;BME280;51918;51.856;0.150;2022-10-23T08:07:20;99445.41;;;15.08;75.67
65151;BME280;51918;51.856;0.150;2022-10-23T08:12:21;99436.47;;;15.23;75.12
65151;BME280;51918;51.856;0.150;2022-10-23T08:17:23;99419.94;;;15.35;74.59
65151;BME280;51918;51.856;0.150;2022-10-23T08:22:24;99404.53;;;15.40;74.43
65151;BME280;51918;51.856;0.150;2022-10-23T08:27:24;99409.81;;;15.34;75.19
65151;BME280;51918;51.856;0.150;2022-10-23T08:32:29;99402.66;;;15.48;74.84
65151;BME280;51918;51.856;0.150;2022-10-23T08:37:30;99410.06;;;15.44;75.00
65151;BME280;51918;51.856;0.150;2022-10-23T08:42:35;99438.94;;;15.48;74.75
65151;BME280;51918;51.856;0.150;2022-10-23T08:47:43;99433.28;;;15.51;74.40
65151;BME280;51918;51.856;0.150;2022-10-23T08:52:49;99424.31;;;15.53;74.56
65151;BME280;51918;51.856;0.150;2022-10-23T08:57:59;99436.53;;;15.46;74.34
65151;BME280;51918;51.856;0.150;2022-10-23T09:03:03;99415.88;;;15.28;75.17
65151;BME280;51918;51.856;0.150;2022-10-23T09:08:15;99413.78;;;15.48;74.73
65151;BME280;51918;51.856;0.150;2022-10-23T09:19:09;99394.66;;;15.49;74.80
65151;BME280;51918;51.856;0.150;2022-10-23T09:24:13;99396.03;;;15.64;74.35
65151;BME280;51918;51.856;0.150;2022-10-23T09:29:21;99394.00;;;15.66;74.07
65151;BME280;51918;51.856;0.150;2022-10-23T09:34:25;99389.47;;;15.49;74.49
65151;BME280;51918;51.856;0.150;2022-10-23T09:39:28;99382.16;;;15.58;74.39
65151;BME280;51918;51.856;0.150;2022-10-23T09:44:31;99387.56;;;15.56;74.52
65151;BME280;51918;51.856;0.150;2022-10-23T09:49:34;99386.31;;;15.59;74.48
65151;BME280;51918;51.856;0.150;2022-10-23T09:54:36;99374.69;;;15.38;75.33
65151;BME280;51918;51.856;0.150;2022-10-23T09:59:38;99379.41;;;15.41;75.38
65151;BME280;51918;51.856;0.150;2022-10-23T10:04:42;99371.06;;;15.39;75.75
65151;BME280;51918;51.856;0.150;2022-10-23T10:09:43;99377.19;;;15.56;75.50
65151;BME280;51918;51.856;0.150;2022-10-23T10:14:53;99383.41;;;15.55;75.53
65151;BME280;51918;51.856;0.150;2022-10-23T10:20:14;99360.53;;;15.76;74.88
65151;BME280;51918;51.856;0.150;2022-10-23T10:25:22;99353.69;;;15.93;74.36
65151;BME280;51918;51.856;0.150;2022-10-23T10:30:33;99361.59;;;15.87;74.63
65151;BME280;51918;51.856;0.150;2022-10-23T10:35:44;99318.88;;;16.01;74.01
65151;BME280;51918;51.856;0.150;2022-10-23T10:41:04;99279.13;;;16.12;73.74
65151;BME280;51918;51.856;0.150;2022-10-23T10:46:15;99305.31;;;16.11;nan
65151;BME280;51918;51.856;0.150;2022-10-23T10:51:26;99296.97;;;16.09;73.83
65151;BME280;51918;51.856;0.150;2022-10-23T10:56:30;99311.31;;;15.88;74.85
65151;BME280;51918;51.856;0.150;2022-10-23T11:01:36;99308.72;;;15.88;74.82
65151;BME280;51918;51.856;0.150;2022-10-23T11:06:42;99233.47;;;15.99;74.95
65151;BME280;51918;51.856;0.150;2022-10-23T11:11:44;99308.59;;;16.18;73.81
65151;BME280;51918;51.856;0.150;2022-10-23T11:16:47;99277.41;;;16.30;73.48
65151;BME280;51918;51.856;0.150;2022-10-23T11:21:55;99265.03;;;16.20;73.59
65151;BME280;51918;51.856;0.150;2022-10-23T11:27:10;99279.22;;;16.17;73.95
65151;BME280;51918;51.856;0.150;2022-10-23T11:32:38;99274.75;;;15.89;75.14
65151;BME280;51918;51.856;0.150;2022-10-23T11:37:58;99255.56;;;16.02;75.36
65151;BME280;51918;51.856;0.150;2022-10-23T11:42:59;99257.81;;;16.22;74.86
65151;BME280;51918;51.856;0.150;2022-10-23T11:48:00;99255.44;;;16.20;75.32
65151;BME280;51918;51.856;0.150;2022-10-23T11:53:04;99269.06;;;16.28;75.23
65151;BME280;51918;51.856;0.150;2022-10-23T11:58:17;99269.78;;;15.99;76.09
65151;BME280;51918;51.856;0.150;2022-10-23T12:03:21;99258.53;;;15.94;77.05
65151;BME280;51918;51.856;0.150;2022-10-23T12:08:27;99238.63;;;16.23;76.81
65151;BME280;51918;51.856;0.150;2022-10-23T12:13:41;99225.75;;;16.57;76.42
65151;BME280;51918;51.856;0.150;2022-10-23T12:18:47;99216.94;;;16.87;75.09
65151;BME280;51918;51.856;0.150;2022-10-23T12:24:02;99198.72;;;17.03;74.76
65151;BME280;51918;51.856;0.150;2022-10-23T12:29:10;99176.44;;;17.24;73.88
65151;BME280;51918;51.856;0.150;2022-10-23T12:34:26;99167.47;;;17.54;72.78
65151;BME280;51918;51.856;0.150;2022-10-23T12:39:34;99151.66;;;17.78;72.15
65151;BME280;51918;51.856;0.150;2022-10-23T12:44:35;99156.28;;;17.71;72.22
65151;BME280;51918;51.856;0.150;2022-10-23T12:49:36;99143.28;;;17.71;71.97
65151;BME280;51918;51.856;0.150;2022-10-23T12:54:38;99128.91;;;17.68;72.23
65151;BME280;51918;51.856;0.150;2022-10-23T12:59:39;99109.50;;;17.76;72.16
65151;BME280;51918;51.856;0.150;2022-10-23T13:04:41;99118.84;;;17.55;72.59
65151;BME280;51918;51.856;0.150;2022-10-23T13:09:44;99105.34;;;17.75;71.83
65151;BME280;51918;51.856;0.150;2022-10-23T13:14:54;99108.28;;;17.61;72.50
65151;BME280;51918;51.856;0.150;2022-10-23T13:19:55;99100.56;;;17.44;72.50
65151;BME280;51918;51.856;0.150;2022-10-23T13:24:57;99091.72;;;17.46;72.51
65151;BME280;51918;51.856;0.150;2022-10-23T13:29:58;99088.19;;;17.57;72.58
65151;BME280;51918;51.856;0.150;2022-10-23T13:34:58;99080.44;;;17.79;71.63
65151;BME280;51918;51.856;0.150;2022-10-23T13:40:02;99068.03;;;17.91;71.47
65151;BME280;51918;51.856;0.150;2022-10-23T13:45:09;99046.47;;;17.69;71.85
65151;BME280;51918;51.856;0.150;2022-10-23T13:50:15;99047.22;;;17.64;71.68
65151;BME280;51918;51.856;0.150;2022-10-23T13:55:20;99035.47;;;17.61;72.06
65151;BME280;51918;51.856;0.150;2022-10-23T14:00:21;99038.84;;;17.84;71.70
65151;BME280;51918;51.856;0.150;2022-10-23T14:05:22;99024.75;;;17.80;71.29
65151;BME280;51918;51.856;0.150;2022-10-23T14:10:24;99009.75;;;17.65;71.32
65151;BME280;51918;51.856;0.150;2022-10-23T14:15:24;99015.34;;;17.52;71.69
65151;BME280;51918;51.856;0.150;2022-10-23T14:20:25;99002.41;;;17.57;71.46
65151;BME280;51918;51.856;0.150;2022-10-23T14:25:27;99001.84;;;17.77;71.29
65151;BME280;51918;51.856;0.150;2022-10-23T14:30:28;98997.31;;;17.94;70.50
65151;BME280;51918;51.856;0.150;2022-10-23T14:35:28;98994.63;;;17.84;70.12
65151;BME280;51918;51.856;0.150;2022-10-23T14:40:30;98976.78;;;17.43;70.61
65151;BME280;51918;51.856;0.150;2022-10-23T14:45:31;98979.28;;;17.60;70.44
65151;BME280;51918;51.856;0.150;2022-10-23T14:50:34;98971.63;;;17.49;70.83
65151;BME280;51918;51.856;0.150;2022-10-23T14:55:36;98951.91;;;17.26;71.64
65151;BME280;51918;51.856;0.150;2022-10-23T15:00:37;98927.28;;;17.60;70.97
65151;BME280;51918;51.856;0.150;2022-10-23T15:05:40;98945.47;;;17.55;70.71
65151;BME280;51918;51.856;0.150;2022-10-23T15:10:42;98946.44;;;17.49;71.01
65151;BME280;51918;51.856;0.150;2022-10-23T15:15:43;98924.16;;;17.58;70.87
65151;BME280;51918;51.856;0.150;2022-10-23T15:20:50;98930.78;;;17.44;71.58
65151;BME280;51918;51.856;0.150;2022-10-23T15:25:55;98922.28;;;17.27;71.52
65151;BME280;51918;51.856;0.150;2022-10-23T15:30:56;98913.81;;;17.36;71.06
65151;BME280;51918;51.856;0.150;2022-10-23T15:35:57;98903.00;;;17.22;71.42
65151;BME280;51918;51.856;0.150;2022-10-23T15:41:13;98886.75;;;17.32;71.34
65151;BME280;51918;51.856;0.150;2022-10-23T15:46:14;98904.25;;;17.42;70.74
65151;BME280;51918;51.856;0.150;2022-10-23T15:51:14;98912.88;;;17.20;71.55
65151;BME280;51918;51.856;0.150;2022-10-23T15:56:16;98892.94;;;17.26;71.29
65151;BME280;51918;51.856;0.150;2022-10-23T16:01:17;98891.06;;;17.21;71.38
65151;BME280;51918;51.856;0.150;2022-10-23T16:06:18;98875.81;;;17.30;71.00
65151;BME280;51918;51.856;0.150;2022-10-23T16:11:23;98868.50;;;17.27;71.26
65151;BME280;51918;51.856;0.150;2022-10-23T16:16:24;98856.25;;;17.22;71.30
65151;BME280;51918;51.856;0.150;2022-10-23T16:21:28;98840.31;;;17.14;71.52
65151;BME280;51918;51.856;0.150;2022-10-23T16:26:31;98827.59;;;17.12;71.43
65151;BME280;51918;51.856;0.150;2022-10-23T16:31:33;98807.78;;;17.06;71.65
65151;BME280;51918;51.856;0.150;2022-10-23T16:36:33;98810.75;;;16.93;71.93
65151;BME280;51918;51.856;0.150;2022-10-23T16:41:35;98821.53;;;16.79;72.49
65151;BME280;51918;51.856;0.150;2022-10-23T16:46:36;98853.06;;;16.66;73.17
65151;BME280;51918;51.856;0.150;2022-10-23T16:51:36;98983.19;;;15.68;63.54
65151;BME280;51918;51.856;0.150;2022-10-23T16:56:39;98980.81;;;14.38;68.83
65151;BME280;51918;51.856;0.150;2022-10-23T17:01:39;98967.81;;;13.80;68.99
65151;BME280;51918;51.856;0.150;2022-10-23T17:06:40;98969.22;;;14.06;68.90
65151;BME280;51918;51.856;0.150;2022-10-23T17:11:43;98936.63;;;14.05;68.45
65151;BME280;51918;51.856;0.150;2022-10-23T17:16:45;98923.56;;;14.23;68.40
65151;BME280;51918;51.856;0.150;2022-10-23T17:21:46;98896.47;;;14.26;67.88
65151;BME280;51918;51.856;0.150;2022-10-23T17:26:48;98883.88;;;14.29;67.87
65151;BME280;51918;51.856;0.150;2022-10-23T17:31:49;98873.75;;;14.40;67.86
65151;BME280;51918;51.856;0.150;2022-10-23T17:36:51;98850.69;;;14.50;67.67
65151;BME280;51918;51.856;0.150;2022-10-23T17:41:54;98870.22;;;14.57;67.52
65151;BME280;51918;51.856;0.150;2022-10-23T17:46:55;98878.53;;;14.59;67.64
65151;BME280;51918;51.856;0.150;2022-10-23T17:51:56;98885.31;;;14.49;66.87
65151;BME280;51918;51.856;0.150;2022-10-23T17:56:58;98879.59;;;14.23;67.47
65151;BME280;51918;51.856;0.150;2022-10-23T18:01:59;98871.31;;;14.09;68.23
65151;BME280;51918;51.856;0.150;2022-10-23T18:07:00;98870.72;;;13.95;68.38
65151;BME280;51918;51.856;0.150;2022-10-23T18:12:02;98878.88;;;13.69;69.30
65151;BME280;51918;51.856;0.150;2022-10-23T18:17:02;98883.78;;;13.47;69.72
65151;BME280;51918;51.856;0.150;2022-10-23T18:22:03;98882.50;;;13.38;69.75
65151;BME280;51918;51.856;0.150;2022-10-23T18:27:05;98881.72;;;13.37;70.03
65151;BME280;51918;51.856;0.150;2022-10-23T18:32:07;98870.56;;;13.25;70.23
65151;BME280;51918;51.856;0.150;2022-10-23T18:37:08;98870.44;;;13.20;70.59
65151;BME280;51918;51.856;0.150;2022-10-23T18:42:10;98865.47;;;13.18;70.78
65151;BME280;51918;51.856;0.150;2022-10-23T18:47:10;98862.47;;;13.21;71.03
65151;BME280;51918;51.856;0.150;2022-10-23T18:52:11;98870.53;;;13.13;71.45
65151;BME280;51918;51.856;0.150;2022-10-23T18:57:13;98870.81;;;13.05;71.99
65151;BME280;51918;51.856;0.150;2022-10-23T19:02:14;98876.09;;;12.80;72.67
65151;BME280;51918;51.856;0.150;2022-10-23T19:07:15;98881.13;;;12.93;72.66
65151;BME280;51918;51.856;0.150;2022-10-23T19:12:17;98884.69;;;12.92;72.96
65151;BME280;51918;51.856;0.150;2022-10-23T19:17:19;98874.63;;;13.02;72.92
65151;BME280;51918;51.856;0.150;2022-10-23T19:22:21;98873.28;;;13.00;73.07
65151;BME280;51918;51.856;0.150;2022-10-23T19:27:24;98863.88;;;13.05;73.34
65151;BME280;51918;51.856;0.150;2022-10-23T19:32:26;98864.19;;;12.97;73.10
65151;BME280;51918;51.856;0.150;2022-10-23T19:37:26;98867.75;;;13.14;72.93
65151;BME280;51918;51.856;0.150;2022-10-23T19:42:28;98842.97;;;12.95;73.68
65151;BME280;51918;51.856;0.150;2022-10-23T19:47:29;98834.47;;;13.06;73.63
65151;BME280;51918;51.856;0.150;2022-10-23T19:52:29;98836.00;;;12.95;74.02
65151;BME280;51918;51.856;0.150;2022-10-23T19:57:32;98829.91;;;12.90;74.42
65151;BME280;51918;51.856;0.150;2022-10-23T20:02:33;98833.22;;;12.97;73.94
65151;BME280;51918;51.856;0.150;2022-10-23T20:07:34;98845.69;;;13.00;74.27
65151;BME280;51918;51.856;0.150;2022-10-23T20:12:36;98844.81;;;13.06;73.88
65151;BME280;51918;51.856;0.150;2022-10-23T20:17:37;98842.91;;;13.13;73.69
65151;BME280;51918;51.856;0.150;2022-10-23T20:22:37;98827.88;;;13.10;73.48
65151;BME280;51918;51.856;0.150;2022-10-23T20:27:39;98830.88;;;13.07;73.69
65151;BME280;51918;51.856;0.150;2022-10-23T20:32:40;98822.94;;;13.21;73.63
65151;BME280;51918;51.856;0.150;2022-10-23T20:37:40;98821.84;;;13.17;73.92
65151;BME280;51918;51.856;0.150;2022-10-23T20:42:42;98812.50;;;13.15;73.80
65151;BME280;51918;51.856;0.150;2022-10-23T20:47:43;98802.28;;;13.09;73.92
65151;BME280;51918;51.856;0.150;2022-10-23T20:52:44;98785.13;;;13.14;73.81
65151;BME280;51918;51.856;0.150;2022-10-23T20:57:46;98777.50;;;13.20;74.05
65151;BME280;51918;51.856;0.150;2022-10-23T21:02:46;98777.50;;;13.20;74.39
65151;BME280;51918;51.856;0.150;2022-10-23T21:07:47;98769.75;;;13.20;74.83
65151;BME280;51918;51.856;0.150;2022-10-23T21:12:49;98769.78;;;13.43;74.29
65151;BME280;51918;51.856;0.150;2022-10-23T21:17:50;98768.09;;;13.61;73.78
65151;BME280;51918;51.856;0.150;2022-10-23T21:22:51;98751.59;;;13.62;73.91
65151;BME280;51918;51.856;0.150;2022-10-23T21:27:53;98718.13;;;13.67;74.08
65151;BME280;51918;51.856;0.150;2022-10-23T21:32:53;98716.44;;;13.84;73.42
65151;BME280;51918;51.856;0.150;2022-10-23T21:37:54;98718.03;;;13.85;73.68
65151;BME280;51918;51.856;0.150;2022-10-23T21:42:56;98730.81;;;13.80;74.07
65151;BME280;51918;51.856;0.150;2022-10-23T21:47:57;98705.44;;;13.77;74.61
65151;BME280;51918;51.856;0.150;2022-10-23T21:52:57;98692.97;;;13.27;76.41
65151;BME280;51918;51.856;0.150;2022-10-23T21:57:59;98681.16;;;13.07;77.49
65151;BME280;51918;51.856;0.150;2022-10-23T22:03:00;98681.28;;;13.12;77.58
65151;BME280;51918;51.856;0.150;2022-10-23T22:08:00;98680.94;;;13.21;77.47
65151;BME280;51918;51.856;0.150;2022-10-23T22:13:02;98674.19;;;13.31;77.84
65151;BME280;51918;51.856;0.150;2022-10-23T22:18:03;98672.88;;;13.41;76.97
65151;BME280;51918;51.856;0.150;2022-10-23T22:23:04;98684.63;;;13.48;76.64
65151;BME280;51918;51.856;0.150;2022-10-23T22:28:06;98691.41;;;13.49;75.07
65151;BME280;51918;51.856;0.150;2022-10-23T22:33:06;98689.59;;;13.50;74.31
65151;BME280;51918;51.856;0.150;2022-10-23T22:38:07;98693.19;;;13.49;73.98
65151;BME280;51918;51.856;0.150;2022-10-23T22:43:09;98709.47;;;13.49;74.21
65151;BME280;51918;51.856;0.150;2022-10-23T22:48:10;98685.66;;;13.47;74.16
65151;BME280;51918;51.856;0.150;2022-10-23T22:53:10;98668.72;;;13.51;73.82
65151;BME280;51918;51.856;0.150;2022-10-23T22:58:12;98670.16;;;13.47;73.81
65151;BME280;51918;51.856;0.150;2022-10-23T23:03:13;98666.38;;;13.38;73.84
65151;BME280;51918;51.856;0.150;2022-10-23T23:08:13;98659.72;;;13.54;73.54
65151;BME280;51918;51.856;0.150;2022-10-23T23:13:15;98667.13;;;13.50;73.89
65151;BME280;51918;51.856;0.150;2022-10-23T23:18:16;98665.88;;;13.65;73.82
65151;BME280;51918;51.856;0.150;2022-10-23T23:23:17;98663.28;;;13.65;74.37
65151;BME280;51918;51.856;0.150;2022-10-23T23:28:19;98655.53;;;13.65;74.42
65151;BME280;51918;51.856;0.150;2022-10-23T23:33:20;98649.91;;;13.68;74.66
65151;BME280;51918;51.856;0.150;2022-10-23T23:38:21;98643.53;;;13.70;74.35
65151;BME280;51918;51.856;0.150;2022-10-23T23:43:22;98633.31;;;13.52;75.53
65151;BME280;51918;51.856;0.150;2022-10-23T23:48:24;98626.56;;;13.63;75.29
65151;BME280;51918;51.856;0.150;2022-10-23T23:53:24;98612.84;;;13.74;74.80
65151;BME280;51918;51.856;0.150;2022-10-23T23:58:26;98620.25;;;13.82;74.36
